Time;durP1;ratioP1;P1;durP2;ratioP2;P2;SDS_P1;SDS_P2;PMS_P1;PMS_P2;Temp;Humidity;BMP_temperature;BMP_pressure;BME280_temperature;BME280_humidity;BME280_pressure;Samples;Min_cycle;Max_cycle;Signal;HPM_P1;HPM_P2
2023/04/28 00:02:19;;;;;;;2.72;1.30;;;;;;;24.83;38.23;100968.44;5013554;28;20018;-55
2023/04/28 00:04:46;;;;;;;5.57;1.35;;;;;;;24.48;37.90;100965.91;5011919;28;20034;-54
2023/04/28 00:07:12;;;;;;;5.38;1.40;;;;;;;24.60;37.91;100961.94;5002136;28;20108;-55
2023/04/28 00:09:38;;;;;;;4.85;1.20;;;;;;;24.22;37.45;100970.91;5012270;28;20073;-54
2023/04/28 00:12:05;;;;;;;2.35;1.38;;;;;;;24.22;38.73;100965.44;5003747;28;20027;-55
2023/04/28 00:14:32;;;;;;;4.43;1.35;;;;;;;23.76;39.13;100969.84;4994092;28;20101;-56
2023/04/28 00:16:58;;;;;;;3.47;1.33;;;;;;;23.97;39.52;100965.75;4996093;28;20034;-57
2023/04/28 00:19:24;;;;;;;4.65;1.88;;;;;;;23.87;39.52;100961.22;4993629;28;20036;-57
2023/04/28 00:21:50;;;;;;;5.10;1.70;;;;;;;23.51;40.06;100960.00;5008980;28;20108;-56
2023/04/28 00:24:17;;;;;;;4.35;1.80;;;;;;;23.53;41.04;100957.78;5000267;28;20039;-56
2023/04/28 00:26:43;;;;;;;4.22;1.40;;;;;;;23.39;40.51;100954.94;4998761;28;20054;-56
2023/04/28 00:29:09;;;;;;;3.67;1.30;;;;;;;23.22;40.89;100949.09;4996599;28;20077;-57
2023/04/28 00:31:35;;;;;;;4.00;1.85;;;;;;;22.86;41.11;100952.91;5002876;28;20064;-56
2023/04/28 00:34:02;;;;;;;4.47;1.60;;;;;;;22.59;41.57;100958.84;4996096;28;20092;-57
2023/04/28 00:36:31;;;;;;;3.40;1.58;;;;;;;22.47;43.08;100946.66;5013162;28;20021;-57
2023/04/28 00:38:58;;;;;;;3.47;1.50;;;;;;;22.68;43.06;100953.59;4995713;28;20033;-57
2023/04/28 00:41:24;;;;;;;5.03;2.00;;;;;;;22.36;43.86;100946.72;5006170;28;20038;-57
2023/04/28 00:43:50;;;;;;;4.53;1.75;;;;;;;22.56;44.41;100958.59;4998843;28;20123;-57
2023/04/28 00:46:35;;;;;;;6.72;1.80;;;;;;;22.14;44.90;100962.66;5012684;28;20538;-57
2023/04/28 00:49:03;;;;;;;9.05;2.28;;;;;;;22.32;44.80;100958.47;4994049;28;20038;-58
2023/04/28 00:51:29;;;;;;;5.95;2.15;;;;;;;;;;5005217;28;20029;-59
2023/04/28 00:53:56;;;;;;;3.63;1.60;;;;;;;22.10;44.77;100962.41;5012922;28;20045;-59
2023/04/28 00:56:23;;;;;;;4.13;1.83;;;;;;;21.94;45.46;100962.72;5011196;28;20034;-59
2023/04/28 00:58:49;;;;;;;4.72;1.77;;;;;;;21.71;46.67;100970.44;5012044;28;20022;-58
2023/04/28 01:01:15;;;;;;;6.72;2.20;;;;;;;21.54;46.55;100959.03;5015540;28;20052;-58
2023/04/28 01:03:41;;;;;;;7.05;1.88;;;;;;;21.44;47.02;100964.53;5012377;28;20026;-61
2023/04/28 01:06:09;;;;;;;4.38;1.80;;;;;;;21.17;47.12;100968.31;5012214;28;20024;-61
2023/04/28 01:08:37;;;;;;;6.65;2.25;;;;;;;21.16;47.75;100968.59;5009717;28;20034;-60
2023/04/28 01:11:03;;;;;;;9.15;2.65;;;;;;;20.64;48.31;100966.94;5011638;28;20079;-54
2023/04/28 01:13:30;;;;;;;6.05;2.63;;;;;;;20.66;48.57;100964.78;5011266;28;20061;-55
2023/04/28 01:15:56;;;;;;;5.53;2.03;;;;;;;20.55;48.74;100958.50;5012414;28;20160;-54
2023/04/28 01:18:23;;;;;;;5.90;2.53;;;;;;;20.35;49.64;100953.81;5012163;28;20083;-52
2023/04/28 01:20:49;;;;;;;4.35;2.17;;;;;;;20.14;50.50;100960.25;5011856;28;20037;-56
2023/04/28 01:23:16;;;;;;;8.32;2.30;;;;;;;20.08;51.33;100958.63;5012544;28;20427;-57
2023/04/28 01:25:43;;;;;;;9.02;2.42;;;;;;;19.98;51.08;100956.66;5012117;28;20026;-57
2023/04/28 01:28:11;;;;;;;8.38;2.42;;;;;;;19.86;52.64;100958.78;5018744;23;20503;-56
2023/04/28 01:30:37;;;;;;;7.95;2.20;;;;;;;19.57;53.04;100963.78;5011243;28;20519;-57
2023/04/28 01:33:03;;;;;;;6.10;2.22;;;;;;;19.28;53.42;100958.72;5011816;28;20076;-58
2023/04/28 01:35:30;;;;;;;7.88;2.80;;;;;;;19.40;53.98;100958.53;5010828;28;20029;-58
2023/04/28 01:37:56;;;;;;;9.13;2.53;;;;;;;19.16;55.32;100958.91;5011704;28;20030;-57
2023/04/28 01:40:23;;;;;;;9.40;2.35;;;;;;;18.94;56.11;100971.75;5010877;28;20184;-57
2023/04/28 01:42:50;;;;;;;7.20;2.10;;;;;;;19.10;55.30;100964.53;4998463;28;20030;-56
2023/04/28 01:45:16;;;;;;;4.00;1.75;;;;;;;18.71;56.32;100970.16;5002172;28;20126;-57
2023/04/28 01:47:42;;;;;;;10.00;2.55;;;;;;;18.82;56.35;100973.78;4995962;28;20029;-56
2023/04/28 01:50:09;;;;;;;4.25;2.13;;;;;;;18.82;56.58;100979.22;5009778;28;20040;-57
2023/04/28 01:52:35;;;;;;;8.65;2.60;;;;;;;18.52;57.44;100979.72;5011630;28;20037;-58
2023/04/28 01:55:02;;;;;;;8.55;2.60;;;;;;;18.45;58.35;100975.31;5011520;28;20037;-58
2023/04/28 01:57:28;;;;;;;8.57;3.25;;;;;;;18.27;58.47;100972.16;5011663;28;20041;-59
2023/04/28 01:59:55;;;;;;;9.30;2.55;;;;;;;18.21;58.96;100968.53;5002244;28;20049;-59
2023/04/28 02:02:21;;;;;;;12.23;3.13;;;;;;;18.13;59.57;100975.22;5010472;28;20057;-58
2023/04/28 02:04:47;;;;;;;7.32;2.80;;;;;;;17.82;60.68;100975.91;4980724;28;20023;-58
2023/04/28 02:07:13;;;;;;;6.70;2.53;;;;;;;17.58;61.70;100976.09;4998722;28;20567;-60
2023/04/28 02:09:40;;;;;;;12.85;3.05;;;;;;;17.67;61.40;100976.50;4996441;28;20394;-59
2023/04/28 02:12:07;;;;;;;7.10;2.88;;;;;;;17.46;62.11;100980.78;5009430;28;20014;-58
2023/04/28 02:14:33;;;;;;;5.90;1.92;;;;;;;17.46;62.11;100985.38;5007800;28;20030;-58
2023/04/28 02:17:01;;;;;;;12.88;3.53;;;;;;;17.36;62.11;100983.34;4996740;28;20023;-59
2023/04/28 02:19:28;;;;;;;11.23;3.20;;;;;;;17.25;63.06;100978.84;5002672;28;20041;-57
2023/04/28 02:21:54;;;;;;;9.75;2.88;;;;;;;16.91;64.03;100978.84;4997096;28;20104;-58
2023/04/28 02:24:20;;;;;;;8.85;2.70;;;;;;;16.84;64.22;100986.28;4995771;28;20034;-58
2023/04/28 02:26:46;;;;;;;8.60;2.05;;;;;;;16.60;66.07;100990.94;5015937;28;20053;-59
2023/04/28 02:29:12;;;;;;;6.68;2.55;;;;;;;16.50;65.99;100988.91;5007022;28;20178;-58
2023/04/28 02:31:39;;;;;;;9.05;2.50;;;;;;;16.15;67.73;100993.59;4996130;28;20026;-58
2023/04/28 02:34:05;;;;;;;7.90;2.55;;;;;;;16.16;67.66;100997.91;4996191;28;20057;-58
2023/04/28 02:36:32;;;;;;;6.93;2.28;;;;;;;15.73;68.87;100997.31;4996189;28;20182;-58
2023/04/28 02:38:58;;;;;;;6.45;2.80;;;;;;;15.53;69.80;101011.13;4997419;28;20026;-59
2023/04/28 02:41:25;;;;;;;7.88;2.58;;;;;;;15.47;70.05;101003.16;5002646;28;20045;-58
2023/04/28 02:43:51;;;;;;;7.82;2.80;;;;;;;15.46;70.56;101007.72;4996033;28;20153;-58
2023/04/28 02:46:17;;;;;;;7.80;2.70;;;;;;;15.46;71.03;101007.72;4995796;28;20548;-59
2023/04/28 02:48:44;;;;;;;7.63;2.42;;;;;;;15.07;72.60;101005.69;4995558;28;20514;-58
2023/04/28 02:51:10;;;;;;;6.88;2.97;;;;;;;15.07;72.41;101008.38;4996846;28;20026;-58
2023/04/28 02:53:36;;;;;;;4.35;2.20;;;;;;;14.71;73.98;101004.75;5003303;28;20394;-58
2023/04/28 02:56:03;;;;;;;5.15;2.20;;;;;;;14.60;74.60;101010.94;4997433;28;20128;-58
2023/04/28 02:58:29;;;;;;;8.48;2.88;;;;;;;14.47;75.39;101014.63;5006905;28;20152;-58
2023/04/28 03:00:56;;;;;;;7.10;2.65;;;;;;;14.63;74.75;101018.56;5014929;28;20026;-59
2023/04/28 03:03:22;;;;;;;11.55;2.75;;;;;;;14.33;76.33;101024.72;5015278;28;20026;-59
2023/04/28 03:05:48;;;;;;;7.72;3.05;;;;;;;14.39;76.21;101020.31;5014191;28;20506;-59
2023/04/28 03:08:14;;;;;;;7.78;3.00;;;;;;;14.10;77.28;101027.25;5002864;28;20085;-59
2023/04/28 03:10:41;;;;;;;8.52;2.58;;;;;;;13.97;77.91;101026.38;5010209;28;20115;-57
2023/04/28 03:13:07;;;;;;;5.85;2.58;;;;;;;13.88;78.29;101033.13;4997410;28;20032;-58
2023/04/28 03:15:33;;;;;;;8.13;3.05;;;;;;;13.64;79.25;101032.09;4999147;28;20110;-57
2023/04/28 03:18:00;;;;;;;7.72;3.55;;;;;;;13.75;79.24;101033.22;5014073;28;20034;-57
2023/04/28 03:20:26;;;;;;;7.53;2.88;;;;;;;13.53;80.09;101045.44;5013278;28;20405;-58
2023/04/28 03:22:52;;;;;;;12.05;3.08;;;;;;;13.75;78.90;101033.22;5007768;28;20526;-59
2023/04/28 03:25:18;;;;;;;7.72;2.67;;;;;;;13.75;78.92;101033.22;5012211;28;20537;-58
2023/04/28 03:27:45;;;;;;;14.18;3.65;;;;;;;13.65;79.58;101043.66;5014743;28;20049;-58
2023/04/28 03:30:11;;;;;;;15.55;3.42;;;;;;;13.60;80.09;101041.66;5011468;28;20029;-58
2023/04/28 03:32:38;;;;;;;11.95;3.55;;;;;;;13.69;79.85;101040.31;5013009;28;20040;-58
2023/04/28 03:35:04;;;;;;;10.57;3.53;;;;;;;13.84;79.21;101048.06;5014782;28;20029;-58
2023/04/28 03:37:30;;;;;;;13.90;3.47;;;;;;;13.90;79.18;101040.94;5010874;28;20133;-59
2023/04/28 03:39:57;;;;;;;14.40;4.15;;;;;;;13.77;79.94;101052.69;4994558;28;20027;-58
2023/04/28 03:42:23;;;;;;;13.85;3.90;;;;;;;13.74;80.17;101051.25;4994966;28;20036;-58
2023/04/28 03:44:49;;;;;;;14.50;4.32;;;;;;;13.70;80.34;101057.28;4993056;28;20145;-58
2023/04/28 03:47:15;;;;;;;15.48;4.10;;;;;;;13.75;79.66;101054.75;5002337;28;20088;-58
2023/04/28 03:49:42;;;;;;;16.13;4.80;;;;;;;13.72;79.64;101050.66;5008071;28;20025;-58
2023/04/28 03:52:08;;;;;;;14.63;4.78;;;;;;;13.90;78.89;101052.53;5013256;28;20464;-58
2023/04/28 03:54:34;;;;;;;24.35;5.70;;;;;;;13.81;78.72;101058.41;5011928;28;20034;-57
2023/04/28 03:57:00;;;;;;;19.55;4.75;;;;;;;13.94;78.26;101063.69;5011239;28;20018;-58
2023/04/28 03:59:27;;;;;;;22.40;5.82;;;;;;;13.82;78.87;101060.06;5012097;28;20057;-57
2023/04/28 04:01:53;;;;;;;24.48;5.53;;;;;;;13.93;78.54;101060.16;5011244;28;20478;-57
2023/04/28 04:04:19;;;;;;;17.77;4.68;;;;;;;14.05;77.61;101067.47;4999409;28;20480;-58
2023/04/28 04:06:46;;;;;;;24.05;5.90;;;;;;;13.91;78.24;101064.94;4994989;28;20133;-57
2023/04/28 04:09:12;;;;;;;25.33;5.53;;;;;;;13.70;79.12;101073.41;5000524;28;20036;-57
2023/04/28 04:11:38;;;;;;;15.95;5.70;;;;;;;13.84;78.58;101069.56;4995143;28;20061;-57
2023/04/28 04:14:05;;;;;;;18.05;5.07;;;;;;;13.73;79.15;101073.00;5011128;28;20022;-58
2023/04/28 04:16:31;;;;;;;22.85;5.50;;;;;;;13.83;78.80;101083.25;5013826;28;20022;-57
2023/04/28 04:18:57;;;;;;;20.65;4.15;;;;;;;13.97;78.26;101088.28;5013404;28;20026;-56
2023/04/28 04:21:23;;;;;;;15.25;4.90;;;;;;;14.07;77.47;101086.94;5014013;28;20030;-57
2023/04/28 04:23:50;;;;;;;16.30;4.22;;;;;;;14.09;77.54;101088.34;5013502;28;20101;-57
2023/04/28 04:26:16;;;;;;;20.23;5.25;;;;;;;13.99;78.22;101093.41;5013646;28;20049;-57
2023/04/28 04:28:42;;;;;;;15.23;4.50;;;;;;;14.07;78.26;101092.31;5013156;28;20053;-57
2023/04/28 04:31:08;;;;;;;18.83;4.70;;;;;;;14.05;78.18;101097.94;5013610;28;20029;-57
2023/04/28 04:33:36;;;;;;;18.85;4.63;;;;;;;14.12;78.37;101096.00;5013676;28;20153;-57
2023/04/28 04:36:03;;;;;;;15.60;4.85;;;;;;;14.22;77.86;101098.19;5013274;28;20030;-57
2023/04/28 04:38:30;;;;;;;18.80;5.03;;;;;;;14.16;78.50;101101.78;5013413;28;20022;-57
2023/04/28 04:40:56;;;;;;;18.20;4.82;;;;;;;14.10;78.75;101098.09;5013401;28;20094;-57
2023/04/28 04:43:22;;;;;;;21.75;4.95;;;;;;;13.92;79.68;101098.88;5013426;28;20466;-57
2023/04/28 04:45:49;;;;;;;18.67;4.65;;;;;;;13.89;80.01;101103.91;5029001;28;20034;-57
2023/04/28 04:48:15;;;;;;;29.25;5.78;;;;;;;13.96;80.08;101113.53;5013351;28;20037;-57
2023/04/28 04:50:42;;;;;;;18.52;4.68;;;;;;;14.09;80.05;101109.06;5013306;28;20030;-56
2023/04/28 04:53:08;;;;;;;22.67;4.38;;;;;;;14.07;80.54;101113.84;5013280;28;20109;-58
2023/04/28 04:55:35;;;;;;;25.45;5.13;;;;;;;13.81;81.50;101110.34;5013219;28;20022;-57
2023/04/28 04:58:01;;;;;;;21.00;5.05;;;;;;;13.88;81.28;101111.16;5011832;28;20108;-57
2023/04/28 05:00:28;;;;;;;20.83;5.40;;;;;;;13.97;80.99;101103.59;5012686;28;20046;-57
2023/04/28 05:02:54;;;;;;;13.85;5.07;;;;;;;13.94;80.82;101095.97;5011165;28;20038;-57
2023/04/28 05:05:20;;;;;;;17.73;5.10;;;;;;;13.84;81.37;101103.72;4993221;28;20084;-57
2023/04/28 05:07:46;;;;;;;12.73;4.07;;;;;;;13.79;82.13;101099.00;4993443;28;20059;-58
2023/04/28 05:10:13;;;;;;;21.35;5.63;;;;;;;13.69;82.69;101101.38;4992956;28;20538;-57
2023/04/28 05:12:39;;;;;;;20.08;5.43;;;;;;;13.58;83.55;101099.41;4993149;28;20037;-57
2023/04/28 05:15:06;;;;;;;20.35;5.30;;;;;;;13.65;82.57;101094.78;5011494;28;20391;-57
2023/04/28 05:17:33;;;;;;;20.00;5.00;;;;;;;13.50;83.14;101095.13;5012088;28;20427;-56
2023/04/28 05:20:00;;;;;;;22.88;5.18;;;;;;;13.51;83.75;101096.75;5012315;28;20034;-57
2023/04/28 05:22:26;;;;;;;13.18;5.10;;;;;;;13.67;83.29;101101.59;4999570;28;20083;-57
2023/04/28 05:24:52;;;;;;;25.15;5.15;;;;;;;13.57;83.94;101103.13;5012453;28;20033;-56
2023/04/28 05:27:18;;;;;;;18.63;5.15;;;;;;;13.60;83.79;101098.16;5006153;28;20081;-57
2023/04/28 05:29:44;;;;;;;25.20;5.15;;;;;;;13.41;84.32;101101.81;4992753;28;20034;-56
2023/04/28 05:32:11;;;;;;;26.58;5.47;;;;;;;13.52;84.17;101095.72;4997859;28;20030;-57
2023/04/28 05:34:37;;;;;;;26.25;5.63;;;;;;;13.54;84.17;101100.88;5012466;28;20458;-56
2023/04/28 05:37:03;;;;;;;20.35;5.25;;;;;;;13.55;84.50;101102.50;5012565;28;20513;-56
2023/04/28 05:39:29;;;;;;;17.65;5.63;;;;;;;13.47;85.07;101099.06;5004458;28;20076;-56
2023/04/28 05:41:57;;;;;;;23.85;6.10;;;;;;;13.44;84.89;101094.13;4992902;28;20025;-58
2023/04/28 05:44:23;;;;;;;16.42;5.50;;;;;;;13.57;84.16;101098.56;4992911;28;20030;-58
2023/04/28 05:46:50;;;;;;;16.92;4.97;;;;;;;13.38;84.77;101099.53;5010170;28;20389;-59
2023/04/28 05:49:16;;;;;;;19.48;5.00;;;;;;;13.63;83.78;101103.06;5009702;28;20041;-58
2023/04/28 05:51:43;;;;;;;19.42;5.03;;;;;;;13.44;84.95;101102.19;5005423;28;20414;-58
2023/04/28 05:54:09;;;;;;;19.45;4.95;;;;;;;13.48;84.58;101099.88;5011613;28;20033;-58
2023/04/28 05:56:36;;;;;;;23.70;5.63;;;;;;;13.56;85.27;101105.00;5010490;28;20545;-58
2023/04/28 05:59:03;;;;;;;21.08;5.60;;;;;;;13.43;86.43;101107.78;5010314;28;20026;-58
2023/04/28 06:01:31;;;;;;;20.70;5.13;;;;;;;13.55;86.03;101100.66;5010920;28;20109;-59
2023/04/28 06:03:57;;;;;;;21.10;5.80;;;;;;;13.31;87.36;101104.97;5011214;28;20058;-58
2023/04/28 06:06:24;;;;;;;31.13;6.78;;;;;;;13.25;87.82;101099.63;5010922;28;20154;-59
2023/04/28 06:08:51;;;;;;;22.85;5.53;;;;;;;13.32;87.59;101097.72;5006879;28;20112;-58
2023/04/28 06:11:21;;;;;;;22.42;5.90;;;;;;;13.39;87.46;101103.91;5011161;28;20026;-59
2023/04/28 06:13:48;;;;;;;26.67;6.22;;;;;;;13.32;87.97;101098.53;5011182;28;20022;-58
2023/04/28 06:16:16;;;;;;;24.05;6.15;;;;;;;13.22;88.20;101092.84;5011232;28;20034;-58
2023/04/28 06:18:42;;;;;;;28.83;7.18;;;;;;;13.21;88.84;101096.56;5011266;28;20072;-58
2023/04/28 06:21:09;;;;;;;23.75;5.72;;;;;;;13.22;89.27;101100.09;5011368;28;20386;-58
2023/04/28 06:23:37;;;;;;;24.67;6.28;;;;;;;13.24;89.03;101096.13;5011640;28;20122;-58
2023/04/28 06:26:03;;;;;;;24.52;6.35;;;;;;;13.21;89.12;101101.94;5011512;28;20033;-58
2023/04/28 06:28:30;;;;;;;25.67;6.43;;;;;;;13.02;89.73;101092.09;5010825;28;20068;-58
2023/04/28 06:30:56;;;;;;;23.67;5.55;;;;;;;13.19;89.06;101099.44;5011404;28;20033;-58
2023/04/28 06:33:22;;;;;;;22.58;6.30;;;;;;;13.10;89.31;101095.38;5009905;28;20029;-58
2023/04/28 06:35:49;;;;;;;20.15;6.15;;;;;;;12.93;90.20;101096.91;5011330;28;20028;-58
2023/04/28 06:38:16;;;;;;;11.63;5.15;;;;;;;12.96;89.96;101099.16;5011227;28;20042;-58
2023/04/28 06:40:42;;;;;;;21.77;6.63;;;;;;;13.03;90.24;101099.13;5011015;28;20091;-59
2023/04/28 06:43:08;;;;;;;12.85;5.00;;;;;;;13.10;89.72;101106.13;5011525;28;20026;-58
2023/04/28 06:45:34;;;;;;;11.70;5.07;;;;;;;12.83;90.67;101108.13;5007077;28;20042;-58
2023/04/28 06:48:01;;;;;;;11.85;3.88;;;;;;;12.75;91.75;101112.91;5011351;28;20026;-58
2023/04/28 06:50:27;;;;;;;5.82;2.97;;;;;;;12.68;91.26;101113.75;5010758;28;20029;-58
2023/04/28 06:52:53;;;;;;;11.90;4.15;;;;;;;12.76;91.08;101117.25;5011134;28;20442;-58
2023/04/28 06:55:19;;;;;;;7.40;3.42;;;;;;;12.62;91.73;101113.81;5011354;28;20088;-58
2023/04/28 06:57:46;;;;;;;16.10;4.18;;;;;;;12.53;91.48;101107.00;5011299;28;20034;-59
2023/04/28 07:00:13;;;;;;;9.00;3.75;;;;;;;12.57;91.90;101109.06;5010373;28;20160;-58
2023/04/28 07:02:39;;;;;;;21.90;5.80;;;;;;;12.53;92.87;101112.38;5010865;28;20030;-58
2023/04/28 07:05:05;;;;;;;22.88;5.60;;;;;;;12.57;92.96;101116.28;4999369;28;20026;-58
2023/04/28 07:07:32;;;;;;;17.00;5.38;;;;;;;12.54;93.41;101111.34;5011323;28;20030;-58
2023/04/28 07:09:59;;;;;;;15.90;5.35;;;;;;;12.50;93.37;101112.81;5011850;28;20025;-59
2023/04/28 07:12:26;;;;;;;21.45;6.53;;;;;;;12.46;93.54;101116.94;5014766;28;20351;-58
2023/04/28 07:14:54;;;;;;;26.73;6.90;;;;;;;12.49;93.33;101111.97;5014549;28;20517;-58
2023/04/28 07:17:20;;;;;;;21.23;6.07;;;;;;;12.73;92.33;101112.31;5014430;28;20048;-59
2023/04/28 07:19:49;;;;;;;19.77;6.10;;;;;;;12.68;92.41;101112.94;5014269;28;20030;-58
2023/04/28 07:22:16;;;;;;;20.20;5.65;;;;;;;12.72;92.07;101118.72;5014688;28;20060;-58
2023/04/28 07:24:43;;;;;;;14.80;5.85;;;;;;;12.65;92.56;101121.41;5014597;28;20808;-58
2023/04/28 07:27:09;;;;;;;28.13;5.68;;;;;;;12.71;91.77;101115.19;5014119;28;20129;-58
2023/04/28 07:29:36;;;;;;;19.33;5.55;;;;;;;12.71;91.48;101115.19;5014008;28;20057;-58
2023/04/28 07:32:07;;;;;;;17.98;4.95;;;;;;;12.81;90.77;101120.09;5009227;28;20065;-58
2023/04/28 07:34:37;;;;;;;25.13;5.80;;;;;;;12.74;90.96;101116.63;5014008;28;20037;-58
2023/04/28 07:37:03;;;;;;;18.88;5.75;;;;;;;12.64;91.08;101122.47;5014035;28;20501;-58
2023/04/28 07:39:33;;;;;;;24.60;5.30;;;;;;;12.51;91.29;101127.88;5013689;28;20030;-58
2023/04/28 07:42:01;;;;;;;22.77;5.35;;;;;;;12.46;91.55;101119.63;5013967;28;20041;-58
2023/04/28 07:44:28;;;;;;;21.70;5.53;;;;;;;12.61;90.42;101123.72;5013621;28;20045;-58
2023/04/28 07:46:55;;;;;;;19.98;4.82;;;;;;;12.57;90.12;101124.34;5013914;28;20034;-58
2023/04/28 07:49:22;;;;;;;19.77;5.57;;;;;;;12.46;91.13;101130.38;5013745;28;20033;-58
2023/04/28 07:51:48;;;;;;;20.02;4.55;;;;;;;12.53;90.91;101118.56;5013575;28;20026;-58
2023/04/28 07:54:14;;;;;;;20.00;4.57;;;;;;;12.49;91.36;101124.56;5013689;28;20044;-58
2023/04/28 07:56:41;;;;;;;16.23;4.63;;;;;;;12.43;91.18;101119.00;5013346;28;20033;-58
2023/04/28 07:59:07;;;;;;;15.70;4.88;;;;;;;12.52;90.83;101118.78;5013500;28;20067;-58
2023/04/28 08:01:33;;;;;;;16.42;4.72;;;;;;;12.50;90.99;101120.88;5013814;28;20509;-58
2023/04/28 08:04:00;;;;;;;16.77;4.40;;;;;;;12.45;91.25;101118.00;5013571;28;20535;-58
2023/04/28 08:06:26;;;;;;;17.83;5.07;;;;;;;12.30;92.07;101121.75;5013464;28;20022;-58
2023/04/28 08:08:52;;;;;;;17.15;4.82;;;;;;;12.22;92.65;101123.84;5013512;28;20108;-58
2023/04/28 08:11:18;;;;;;;11.75;4.53;;;;;;;12.25;93.14;101123.41;5013556;28;20076;-58
2023/04/28 08:13:45;;;;;;;14.02;4.47;;;;;;;12.40;92.52;101118.63;5013469;28;20506;-58
2023/04/28 08:16:12;;;;;;;16.42;4.47;;;;;;;12.35;92.21;101113.88;5013418;28;20091;-58
2023/04/28 08:18:38;;;;;;;7.57;3.42;;;;;;;12.42;92.40;101113.84;5013032;28;20041;-58
2023/04/28 08:21:05;;;;;;;9.35;3.72;;;;;;;12.34;92.96;101112.25;5012794;28;20048;-58
2023/04/28 08:23:31;;;;;;;9.60;3.33;;;;;;;12.38;93.08;101116.16;5013015;28;20033;-58
2023/04/28 08:25:58;;;;;;;13.23;4.45;;;;;;;12.48;92.61;101110.31;5013554;28;20056;-58
2023/04/28 08:28:24;;;;;;;13.63;4.57;;;;;;;12.33;93.08;101109.78;5012630;28;20056;-58
2023/04/28 08:30:52;;;;;;;12.60;3.97;;;;;;;12.54;91.92;101101.41;5013117;28;20037;-58
2023/04/28 08:33:18;;;;;;;13.32;3.85;;;;;;;12.39;92.60;101104.38;5013130;28;20026;-58
2023/04/28 08:35:45;;;;;;;13.02;4.03;;;;;;;12.41;92.86;101109.53;5012863;28;20124;-58
2023/04/28 08:38:13;;;;;;;15.68;4.05;;;;;;;12.38;92.15;101115.31;5012621;28;20383;-58
2023/04/28 08:40:41;;;;;;;13.65;4.28;;;;;;;12.41;91.66;101104.16;5012518;28;20042;-58
2023/04/28 08:43:09;;;;;;;13.27;4.07;;;;;;;12.21;91.97;101106.06;5011461;28;20037;-58
2023/04/28 08:45:43;;;;;;;14.77;4.13;;;;;;;12.37;91.59;101109.13;5012514;28;20117;-58
2023/04/28 08:48:19;;;;;;;9.63;3.40;;;;;;;12.36;91.87;101106.66;5011984;28;20049;-59
2023/04/28 08:50:50;;;;;;;9.77;3.55;;;;;;;12.34;91.76;101106.03;5012221;28;20050;-58
2023/04/28 08:53:25;;;;;;;19.10;4.20;;;;;;;12.27;91.97;101105.22;5012378;28;20044;-58
2023/04/28 08:55:57;;;;;;;12.98;3.70;;;;;;;12.11;93.17;101095.78;5012872;28;20080;-58
2023/04/28 08:58:27;;;;;;;10.25;3.42;;;;;;;12.08;92.87;101099.69;5012376;28;20406;-58
2023/04/28 09:00:53;;;;;;;16.70;4.55;;;;;;;12.02;93.29;101094.34;5012483;28;20051;-58
2023/04/28 09:03:20;;;;;;;11.52;3.63;;;;;;;12.06;93.82;101093.72;5012401;28;20036;-57
2023/04/28 09:05:47;;;;;;;9.18;3.53;;;;;;;12.12;93.08;101097.44;5012528;28;20394;-58
2023/04/28 09:08:14;;;;;;;11.50;3.70;;;;;;;12.13;93.30;101096.38;5011890;28;20037;-57
2023/04/28 09:10:40;;;;;;;9.05;3.47;;;;;;;12.06;92.75;101092.91;5012232;28;20034;-58
2023/04/28 09:13:07;;;;;;;11.70;3.65;;;;;;;11.98;94.37;101098.47;5012187;28;20429;-58
2023/04/28 09:15:40;;;;;;;9.25;3.60;;;;;;;11.86;95.18;101100.97;5012443;28;20072;-58
2023/04/28 09:18:07;;;;;;;8.90;3.45;;;;;;;11.84;95.47;101095.00;5012240;28;20038;-58
2023/04/28 09:20:35;;;;;;;8.18;3.40;;;;;;;12.01;94.47;101100.75;5022535;23;20053;-58
2023/04/28 09:23:19;;;;;;;10.60;4.03;;;;;;;12.02;94.33;101092.50;5031771;28;20034;-58
2023/04/28 09:26:01;;;;;;;7.68;3.45;;;;;;;11.92;94.74;101096.63;5032055;28;20057;-58
2023/04/28 09:28:27;;;;;;;10.93;4.20;;;;;;;11.87;94.69;101092.72;5015515;28;20029;-58
2023/04/28 09:30:54;;;;;;;13.52;5.13;;;;;;;11.91;94.77;101095.81;5031658;28;20084;-58
2023/04/28 09:33:21;;;;;;;12.93;5.15;;;;;;;12.03;94.58;101090.63;5031478;28;20517;-57
2023/04/28 09:35:47;;;;;;;15.18;5.60;;;;;;;12.04;94.27;101097.63;5031749;28;20025;-57
2023/04/28 09:38:18;;;;;;;13.23;5.53;;;;;;;12.02;94.33;101097.03;5031411;28;20143;-58
2023/04/28 09:40:59;;;;;;;10.45;4.65;;;;;;;11.97;93.84;101092.28;5030893;28;20512;-58
2023/04/28 09:43:30;;;;;;;8.93;4.47;;;;;;;11.94;93.38;101092.72;5031178;28;20064;-57
2023/04/28 09:45:59;;;;;;;11.63;4.57;;;;;;;11.73;95.01;101096.41;5030894;28;20511;-58
2023/04/28 09:48:38;;;;;;;10.35;4.40;;;;;;;11.60;96.45;101101.75;5031175;28;20033;-57
2023/04/28 09:51:06;;;;;;;10.07;4.28;;;;;;;11.72;95.30;101102.81;5030853;28;20040;-58
2023/04/28 09:53:34;;;;;;;13.23;3.90;;;;;;;11.80;94.83;101105.28;5030991;28;20044;-58
2023/04/28 09:56:03;;;;;;;6.00;2.47;;;;;;;11.83;94.27;101104.91;5030726;28;20038;-58
2023/04/28 09:58:31;;;;;;;6.80;2.33;;;;;;;11.68;95.55;101098.06;5030995;28;20466;-58
2023/04/28 10:00:59;;;;;;;5.80;2.80;;;;;;;11.86;95.12;101101.78;5031102;28;20037;-58
2023/04/28 10:03:28;;;;;;;7.05;2.70;;;;;;;11.92;94.45;101102.00;5030637;28;20216;-58
2023/04/28 10:05:56;;;;;;;5.22;2.30;;;;;;;11.84;94.09;101100.38;5031377;28;20470;-58
2023/04/28 10:08:25;;;;;;;8.73;2.65;;;;;;;11.87;93.98;101103.44;5031689;28;20509;-58
2023/04/28 10:10:53;;;;;;;8.13;2.58;;;;;;;11.93;93.67;101100.97;5031664;28;20112;-58
2023/04/28 10:13:20;;;;;;;9.95;2.88;;;;;;;11.83;93.89;101109.44;5031656;28;20536;-57
2023/04/28 10:15:48;;;;;;;5.68;2.55;;;;;;;11.79;93.60;101108.19;5016504;28;20037;-58
2023/04/28 10:18:15;;;;;;;3.38;1.90;;;;;;;11.88;92.72;101102.44;5030646;28;20474;-58
2023/04/28 10:20:48;;;;;;;5.78;2.15;;;;;;;11.77;94.08;101100.34;5030538;28;20061;-58
2023/04/28 10:23:45;;;;;;;4.05;2.00;;;;;;;11.87;94.10;101106.13;5031499;28;20077;-58
2023/04/28 10:26:15;;;;;;;6.93;2.25;;;;;;;11.80;93.99;101097.22;5031296;28;20033;-57
2023/04/28 10:28:46;;;;;;;6.80;2.95;;;;;;;11.82;93.89;101097.88;5031153;28;20025;-57
2023/04/28 10:31:14;;;;;;;9.20;3.05;;;;;;;11.75;94.19;101097.03;5031296;28;20034;-58
2023/04/28 10:33:41;;;;;;;8.95;3.03;;;;;;;11.78;94.18;101099.31;5031301;28;20037;-57
2023/04/28 10:36:08;;;;;;;7.28;2.83;;;;;;;11.73;93.85;101106.31;5031045;28;20025;-57
2023/04/28 10:38:35;;;;;;;8.27;2.83;;;;;;;11.56;94.80;101106.75;5031108;28;20108;-57
2023/04/28 10:41:02;;;;;;;7.63;2.60;;;;;;;11.71;93.65;101103.81;5030062;28;20033;-57
2023/04/28 10:43:36;;;;;;;7.82;2.60;;;;;;;11.53;94.55;101100.94;5030917;28;20029;-58
2023/04/28 10:46:07;;;;;;;8.60;2.90;;;;;;;11.59;94.23;101097.44;5033245;28;20037;-58
2023/04/28 10:48:36;;;;;;;8.60;2.65;;;;;;;11.63;94.17;101101.38;5034873;28;20040;-57
2023/04/28 10:51:05;;;;;;;7.50;2.42;;;;;;;11.66;94.64;101102.78;5033961;28;20041;-57
2023/04/28 10:53:51;;;;;;;5.97;2.70;;;;;;;11.64;94.54;101100.34;5034026;28;20017;-57
2023/04/28 10:56:24;;;;;;;8.32;3.03;;;;;;;11.67;94.98;101105.28;5033847;28;20044;-57
2023/04/28 10:58:51;;;;;;;9.75;3.10;;;;;;;11.69;94.72;101100.53;5033421;28;20025;-58
2023/04/28 11:01:20;;;;;;;5.90;2.70;;;;;;;11.67;94.50;101102.63;5034288;28;20041;-57
2023/04/28 11:03:59;;;;;;;6.13;3.25;;;;;;;11.57;95.36;101100.34;5034464;28;20025;-57
2023/04/28 11:06:39;;;;;;;5.43;3.00;;;;;;;11.52;96.40;101099.31;5033573;28;20038;-54
2023/04/28 11:09:14;;;;;;;11.13;3.03;;;;;;;11.55;96.40;101105.09;5034271;28;20033;-56
2023/04/28 11:11:58;;;;;;;7.65;2.72;;;;;;;11.54;96.18;101111.47;5034267;28;20052;-56
2023/04/28 11:14:24;;;;;;;6.93;2.65;;;;;;;11.73;95.01;101104.47;5034079;28;20057;-56
2023/04/28 11:16:55;;;;;;;7.72;3.15;;;;;;;11.72;94.61;101115.41;5033325;28;20030;-56
2023/04/28 11:19:25;;;;;;;5.75;2.22;;;;;;;11.76;94.23;101108.56;5033732;28;20025;-56
2023/04/28 11:21:54;;;;;;;7.30;2.35;;;;;;;11.74;94.11;101111.47;5033649;28;20124;-56
2023/04/28 11:24:21;;;;;;;6.03;2.40;;;;;;;11.77;93.88;101108.38;5034177;28;20037;-56